SE Lincoln WX Station Historical Data
 
Daily Summary for April 07, 2020 Units:  English    Metric   Both
Daily Weekly Monthly Yearly Custom
  Current: High: Low: Average:
Temperature: 87.5 °F 88.8 °F 56 °F 68.6 °F
Dew Point: 35.6 °F 58.4 °F 34.3 °F 51.3 °F
Humidity: 15.8% 95% 14.6% 67%
Wind Speed: 3mph 6.6mph 0.6mph 2.9mph
Wind Gust: 6mph 17mph - -
WindNW - - WSW
Pressure: 29.66 in 29.75 in 29.66 in -
Precipitation: 0.00 in      
Historical Graphs
 
 
Tabular Data for April 07, 2020
Time Temperature Dew Point Pressure Wind Wind Speed Wind Gust Humidity Rainfall Rate (Hourly) solar
00:04 64.6 °F 57.9 °F 29.71 in SW 4 mph 10 mph 79% 0.00 in 0 W/m2
00:09 64.5 °F 57.9 °F 29.71 in SSW 4.6 mph 10 mph 79.2% 0.00 in 0 W/m2
00:14 64.4 °F 58.1 °F 29.71 in SW 3.7 mph 8 mph 80% 0.00 in 0 W/m2
00:19 64.3 °F 58 °F 29.71 in SSW 5.5 mph 13 mph 80% 0.00 in 0 W/m2
00:24 64.2 °F 57.9 °F 29.72 in SW 4.9 mph 13 mph 80% 0.00 in 0 W/m2
00:29 64.2 °F 58.2 °F 29.72 in SSW 4.4 mph 13 mph 80.9% 0.00 in 0 W/m2
00:34 64.1 °F 58.2 °F 29.72 in SW 4.6 mph 13 mph 81% 0.00 in 0 W/m2
00:39 64.1 °F 58.1 °F 29.72 in SSW 4.4 mph 9 mph 81% 0.00 in 0 W/m2
00:44 64 °F 58.2 °F 29.72 in SSW 5.5 mph 11 mph 81.5% 0.00 in 0 W/m2
00:49 64 °F 58.4 °F 29.72 in SSW 4 mph 12 mph 82% 0.00 in 0 W/m2
00:54 63.9 °F 58.3 °F 29.72 in SSW 3.7 mph 8 mph 82% 0.00 in 0 W/m2
00:59 63.8 °F 58.2 °F 29.72 in SSW 4.8 mph 10 mph 82% 0.00 in 0 W/m2
01:04 63.6 °F 58 °F 29.72 in SSW 3.2 mph 8 mph 82% 0.00 in 0 W/m2
01:09 63.4 °F 58.1 °F 29.72 in SSW 3.4 mph 8 mph 82.8% 0.00 in 0 W/m2
01:14 63.2 °F 57.9 °F 29.72 in SSW 4.1 mph 10 mph 83% 0.00 in 0 W/m2
01:19 62.9 °F 57.7 °F 29.72 in SSW 3.6 mph 9 mph 83% 0.00 in 0 W/m2
01:24 62.7 °F 57.8 °F 29.72 in SSW 3.7 mph 9 mph 83.9% 0.00 in 0 W/m2
01:29 62.6 °F 57.7 °F 29.72 in SSW 4 mph 8 mph 84% 0.00 in 0 W/m2
01:34 62.4 °F 57.6 °F 29.72 in SSW 4.4 mph 11 mph 84.2% 0.00 in 0 W/m2
01:39 62.3 °F 57.8 °F 29.72 in SSW 3 mph 11 mph 85% 0.00 in 0 W/m2
01:44 62.2 °F 57.6 °F 29.72 in SSW 2.9 mph 7 mph 85% 0.00 in 0 W/m2
01:49 62 °F 57.5 °F 29.72 in South 3.5 mph 9 mph 85% 0.00 in 0 W/m2
01:54 61.9 °F 57.5 °F 29.72 in SSW 3.2 mph 9 mph 85.5% 0.00 in 0 W/m2
01:59 61.7 °F 57.5 °F 29.72 in SW 3.2 mph 8 mph 86% 0.00 in 0 W/m2
02:04 61.7 °F 57.4 °F 29.72 in SSW 3.8 mph 10 mph 86% 0.00 in 0 W/m2
02:09 61.5 °F 57.3 °F 29.71 in SW 3.3 mph 9 mph 86% 0.00 in 0 W/m2
02:14 61.4 °F 57.2 °F 29.71 in SSW 3.6 mph 7 mph 86.2% 0.00 in 0 W/m2
02:19 61.2 °F 57.3 °F 29.71 in SSW 4 mph 9 mph 87% 0.00 in 0 W/m2
02:24 61.1 °F 57.2 °F 29.71 in SW 2.9 mph 7 mph 87% 0.00 in 0 W/m2
02:29 60.9 °F 57.1 °F 29.71 in SSW 3.2 mph 7 mph 87% 0.00 in 0 W/m2
02:34 60.7 °F 56.9 °F 29.70 in SSW 2.6 mph 6 mph 87.2% 0.00 in 0 W/m2
02:39 60.6 °F 57 °F 29.70 in SSW 3.5 mph 9 mph 88% 0.00 in 0 W/m2
02:44 60.5 °F 56.9 °F 29.70 in SSW 3.3 mph 7 mph 88% 0.00 in 0 W/m2
02:49 60.4 °F 56.8 °F 29.70 in SSW 2.9 mph 7 mph 88% 0.00 in 0 W/m2
02:54 60.3 °F 56.8 °F 29.70 in SSW 2.3 mph 5 mph 88.3% 0.00 in 0 W/m2
02:59 60.2 °F 56.9 °F 29.69 in SSW 2.7 mph 5 mph 89% 0.00 in 0 W/m2
03:04 60 °F 56.8 °F 29.69 in SSW 3.2 mph 9 mph 89% 0.00 in 0 W/m2
03:09 59.9 °F 56.7 °F 29.69 in SSW 2.7 mph 7 mph 89% 0.00 in 0 W/m2
03:14 59.8 °F 56.5 °F 29.69 in SSW 2.4 mph 7 mph 89% 0.00 in 0 W/m2
03:19 59.6 °F 56.3 °F 29.69 in SSW 2.7 mph 6 mph 89% 0.00 in 0 W/m2
03:24 59.4 °F 56.3 °F 29.69 in SSW 3.2 mph 7 mph 89.5% 0.00 in 0 W/m2
03:29 59.3 °F 56.4 °F 29.68 in SSW 2.9 mph 6 mph 90% 0.00 in 0 W/m2
03:34 59.2 °F 56.3 °F 29.69 in SW 2.1 mph 5 mph 90% 0.00 in 0 W/m2
03:39 59.2 °F 56.2 °F 29.68 in SW 2.3 mph 7 mph 90% 0.00 in 0 W/m2
03:44 59.1 °F 56.1 °F 29.69 in SW 1.9 mph 5 mph 90% 0.00 in 0 W/m2
03:49 59 °F 56.1 °F 29.68 in SSW 2.4 mph 6 mph 90% 0.00 in 0 W/m2
03:54 58.9 °F 56.2 °F 29.68 in SSW 2.4 mph 6 mph 90.8% 0.00 in 0 W/m2
03:59 58.8 °F 56.2 °F 29.68 in SSW 2.8 mph 7 mph 91% 0.00 in 0 W/m2
04:04 58.8 °F 56.1 °F 29.68 in SSW 2.5 mph 6 mph 91% 0.00 in 0 W/m2
04:09 58.7 °F 56.1 °F 29.68 in SSW 2.2 mph 7 mph 91% 0.00 in 0 W/m2
04:14 58.6 °F 56 °F 29.68 in SW 2.6 mph 7 mph 91% 0.00 in 0 W/m2
04:19 58.6 °F 56 °F 29.68 in SSW 2.5 mph 8 mph 91% 0.00 in 0 W/m2
04:24 58.5 °F 55.9 °F 29.67 in SSW 1.6 mph 6 mph 91% 0.00 in 0 W/m2
04:29 58.4 °F 56 °F 29.67 in SW 1.7 mph 4 mph 91.7% 0.00 in 0 W/m2
04:34 58.3 °F 56 °F 29.67 in SW 2.7 mph 8 mph 92% 0.00 in 0 W/m2
04:39 58.3 °F 56 °F 29.67 in SW 2.4 mph 6 mph 92% 0.00 in 0 W/m2
04:44 58.3 °F 56 °F 29.67 in SW 2.5 mph 6 mph 92% 0.00 in 0 W/m2
04:49 58.2 °F 55.9 °F 29.67 in SW 2.5 mph 6 mph 92% 0.00 in 0 W/m2
04:54 58.1 °F 55.8 °F 29.67 in SSW 2.7 mph 5 mph 92% 0.00 in 0 W/m2
04:59 58 °F 55.7 °F 29.67 in SW 1.6 mph 4 mph 92% 0.00 in 0 W/m2
05:04 57.9 °F 55.6 °F 29.67 in SW 2.4 mph 5 mph 92% 0.00 in 0 W/m2
05:09 57.9 °F 55.6 °F 29.67 in SW 2.4 mph 5 mph 92% 0.00 in 0 W/m2
05:14 57.8 °F 55.6 °F 29.67 in SW 1.3 mph 5 mph 92.3% 0.00 in 0 W/m2
05:19 57.7 °F 55.7 °F 29.67 in SW 1.4 mph 5 mph 93% 0.00 in 0 W/m2
05:24 57.6 °F 55.6 °F 29.67 in SSW 1.5 mph 4 mph 93% 0.00 in 0 W/m2
05:29 57.6 °F 55.6 °F 29.67 in SW 1.4 mph 4 mph 93% 0.00 in 0 W/m2
05:34 57.5 °F 55.5 °F 29.67 in SW 1.4 mph 3 mph 93% 0.00 in 0 W/m2
05:39 57.5 °F 55.5 °F 29.67 in SW 1.6 mph 4 mph 93% 0.00 in 0 W/m2
05:44 57.4 °F 55.4 °F 29.67 in SW 1.3 mph 3 mph 93% 0.00 in 0 W/m2
05:49 57.4 °F 55.4 °F 29.67 in SW 1.5 mph 4 mph 93% 0.00 in 0 W/m2
05:54 57.3 °F 55.3 °F 29.67 in WSW 1 mph 3 mph 93% 0.00 in 0 W/m2
05:59 57.1 °F 55.1 °F 29.67 in SW 1.1 mph 3 mph 93% 0.00 in 0 W/m2
06:04 57 °F 55 °F 29.67 in SW 1 mph 3 mph 93% 0.00 in 0 W/m2
06:09 56.8 °F 54.8 °F 29.67 in SW 1.6 mph 6 mph 93% 0.00 in 0 W/m2
06:14 56.8 °F 54.8 °F 29.67 in SW 1.5 mph 4 mph 93% 0.00 in 0 W/m2
06:19 56.7 °F 54.7 °F 29.67 in SW 2.1 mph 4 mph 93% 0.00 in 0 W/m2
06:24 56.7 °F 55 °F 29.67 in SSW 1.8 mph 5 mph 93.9% 0.00 in 0 W/m2
06:29 56.6 °F 54.9 °F 29.67 in SSW 1.8 mph 4 mph 94% 0.00 in 0 W/m2
06:34 56.6 °F 54.9 °F 29.67 in SW 1.8 mph 4 mph 94% 0.00 in 0 W/m2
06:39 56.6 °F 54.9 °F 29.67 in SW 1.4 mph 3 mph 94% 0.00 in 0 W/m2
06:42 56.5 °F 54.8 °F 29.67 in SW 2.5 mph 4 mph 94% 0.00 in 0 W/m2
06:49 56.6 °F 54.9 °F 29.71 in West 2.4 mph 6 mph 94% 0.00 in 0 W/m2
06:54 56.7 °F 55 °F 29.71 in West 1.5 mph 4 mph 94% 0.00 in 0 W/m2
06:59 56.7 °F 55 °F 29.71 in West 1.9 mph 5 mph 94% 0.00 in 0 W/m2
07:04 56.7 °F 55 °F 29.71 in WSW 3 mph 6 mph 94% 0.00 in 5 W/m2
07:09 56.7 °F 55 °F 29.71 in WSW 1.5 mph 4 mph 94% 0.00 in 9 W/m2
07:14 56.6 °F 54.9 °F 29.71 in West 1.4 mph 3 mph 94% 0.00 in 12 W/m2
07:19 56.5 °F 54.8 °F 29.71 in West 0.8 mph 2 mph 94% 0.00 in 16 W/m2
07:24 56.3 °F 54.6 °F 29.72 in West 0.9 mph 2 mph 94% 0.00 in 21 W/m2
07:29 56.2 °F 54.5 °F 29.72 in West 0.8 mph 3 mph 94% 0.00 in 32 W/m2
07:34 56.1 °F 54.4 °F 29.72 in West 0.9 mph 3 mph 94% 0.00 in 49 W/m2
07:39 56 °F 54.3 °F 29.73 in West 0.9 mph 3 mph 94% 0.00 in 49 W/m2
07:44 56.1 °F 54.4 °F 29.73 in West 1.1 mph 3 mph 94% 0.00 in 28 W/m2
07:49 56.2 °F 54.5 °F 29.73 in West 1.4 mph 3 mph 94% 0.00 in 42 W/m2
07:54 56.3 °F 54.6 °F 29.73 in WSW 2.1 mph 4 mph 94% 0.00 in 32 W/m2
07:59 56.3 °F 54.6 °F 29.72 in West 1.3 mph 4 mph 94% 0.00 in 32 W/m2
08:04 56.2 °F 54.5 °F 29.72 in WSW 1.6 mph 4 mph 94% 0.00 in 49 W/m2
08:09 56.1 °F 54.4 °F 29.72 in WSW 0.9 mph 3 mph 94% 0.00 in 53 W/m2
08:14 56 °F 54.3 °F 29.72 in WSW 1.5 mph 4 mph 94% 0.00 in 63 W/m2
08:19 56 °F 54.3 °F 29.72 in WSW 1.4 mph 4 mph 94% 0.00 in 69 W/m2
08:24 56 °F 54.3 °F 29.72 in WSW 1.8 mph 4 mph 94% 0.00 in 70 W/m2
08:29 56 °F 54.3 °F 29.72 in SW 2 mph 4 mph 94% 0.00 in 91 W/m2
08:34 56.1 °F 54.5 °F 29.72 in SW 2.3 mph 6 mph 94.6% 0.00 in 93 W/m2
08:39 56.1 °F 54.7 °F 29.71 in SW 2.2 mph 5 mph 95% 0.00 in 109 W/m2
08:44 56.3 °F 54.9 °F 29.72 in South 1.5 mph 4 mph 95% 0.00 in 104 W/m2
08:49 56.4 °F 55 °F 29.71 in SSW 2.5 mph 6 mph 95% 0.00 in 109 W/m2
08:54 56.5 °F 55.1 °F 29.71 in SW 2.4 mph 6 mph 95% 0.00 in 125 W/m2
08:59 56.6 °F 55.2 °F 29.71 in SW 1.9 mph 5 mph 95% 0.00 in 142 W/m2
09:04 56.8 °F 55.4 °F 29.72 in SW 1.8 mph 4 mph 95% 0.00 in 142 W/m2
09:09 56.9 °F 55.5 °F 29.72 in SW 1.8 mph 3 mph 95% 0.00 in 137 W/m2
09:14 57 °F 55.6 °F 29.72 in WSW 2.9 mph 6 mph 95% 0.00 in 149 W/m2
09:19 57 °F 55.6 °F 29.72 in SW 2.7 mph 5 mph 95% 0.00 in 162 W/m2
09:24 57.1 °F 55.7 °F 29.72 in SW 2.8 mph 5 mph 95% 0.00 in 162 W/m2
09:29 57.2 °F 55.8 °F 29.73 in SW 2.1 mph 5 mph 95% 0.00 in 227 W/m2
09:34 57.2 °F 55.8 °F 29.73 in SW 4.3 mph 8 mph 95% 0.00 in 236 W/m2
09:39 57.2 °F 55.8 °F 29.73 in SW 3.8 mph 7 mph 95% 0.00 in 223 W/m2
09:44 57.4 °F 55.9 °F 29.73 in SW 3.7 mph 8 mph 95% 0.00 in 199 W/m2
09:49 57.4 °F 56 °F 29.73 in SW 3.9 mph 9 mph 95% 0.00 in 243 W/m2
09:54 57.3 °F 55.9 °F 29.73 in SW 3.4 mph 9 mph 95% 0.00 in 411 W/m2
09:59 57.5 °F 56.1 °F 29.73 in SW 3.3 mph 7 mph 95% 0.00 in 376 W/m2
10:04 57.8 °F 56.4 °F 29.74 in WSW 2.7 mph 7 mph 95% 0.00 in 415 W/m2
10:09 57.9 °F 56.5 °F 29.74 in WSW 2.5 mph 7 mph 95% 0.00 in 336 W/m2
10:14 58.6 °F 57.2 °F 29.75 in SW 1.8 mph 7 mph 95% 0.00 in 264 W/m2
10:19 59.1 °F 57.4 °F 29.75 in WSW 2.9 mph 7 mph 94% 0.00 in 255 W/m2
10:24 59.7 °F 57.7 °F 29.74 in WSW 2.6 mph 5 mph 93.1% 0.00 in 490 W/m2
10:29 60.4 °F 57.8 °F 29.74 in WSW 2.7 mph 6 mph 91.3% 0.00 in 476 W/m2
10:34 61.1 °F 57.9 °F 29.74 in SW 2.5 mph 5 mph 89.4% 0.00 in 482 W/m2
10:39 62 °F 58 °F 29.75 in SW 2.6 mph 7 mph 86.8% 0.00 in 510 W/m2
10:44 62.8 °F 57.9 °F 29.75 in SSW 2.6 mph 6 mph 83.9% 0.00 in 538 W/m2
10:49 63.8 °F 57.9 °F 29.74 in South 1.5 mph 4 mph 81.1% 0.00 in 570 W/m2
10:54 64.4 °F 57.8 °F 29.74 in SW 3.2 mph 6 mph 78.9% 0.00 in 603 W/m2
10:59 64.8 °F 57.4 °F 29.74 in SSW 2.1 mph 6 mph 76.9% 0.00 in 628 W/m2
11:04 65.7 °F 57.9 °F 29.74 in WSW 1.3 mph 3 mph 76.1% 0.00 in 656 W/m2
11:09 67.1 °F 58 °F 29.74 in West 1 mph 3 mph 72.6% 0.00 in 666 W/m2
11:14 68 °F 58.2 °F 29.74 in WSW 1.7 mph 4 mph 71% 0.00 in 679 W/m2
11:19 68.8 °F 58.2 °F 29.74 in West 1.3 mph 3 mph 69% 0.00 in 686 W/m2
11:24 69.5 °F 58.3 °F 29.74 in West 1.3 mph 6 mph 67.7% 0.00 in 696 W/m2
11:29 70.3 °F 57.5 °F 29.74 in WNW 1.6 mph 4 mph 63.9% 0.00 in 707 W/m2
11:34 70.8 °F 57.4 °F 29.74 in NW 1.6 mph 4 mph 62.6% 0.00 in 715 W/m2
11:39 70.9 °F 56.9 °F 29.74 in West 1.5 mph 4 mph 61% 0.00 in 724 W/m2
11:44 71.7 °F 56.9 °F 29.74 in West 0.6 mph 3 mph 59.6% 0.00 in 731 W/m2
11:49 72.6 °F 57.1 °F 29.73 in West 2 mph 5 mph 58.2% 0.00 in 740 W/m2
11:54 72.9 °F 56.4 °F 29.73 in West 2 mph 5 mph 56.1% 0.00 in 749 W/m2
11:59 73.2 °F 57.1 °F 29.73 in WSW 1.8 mph 4 mph 57.2% 0.00 in 752 W/m2
12:04 75.2 °F 57.8 °F 29.73 in West 1.1 mph 3 mph 54.7% 0.00 in 763 W/m2
12:09 76.3 °F 56.8 °F 29.73 in WNW 1.8 mph 4 mph 50.9% 0.00 in 766 W/m2
12:14 76.8 °F 57.1 °F 29.73 in North 0.9 mph 3 mph 50.6% 0.00 in 775 W/m2
12:19 77.5 °F 55.8 °F 29.72 in West 2.2 mph 5 mph 47.3% 0.00 in 780 W/m2
12:24 78.1 °F 56.2 °F 29.72 in NNW 2.4 mph 6 mph 46.8% 0.00 in 786 W/m2
12:29 78.4 °F 55.9 °F 29.72 in WNW 1.7 mph 6 mph 45.9% 0.00 in 791 W/m2
12:34 78.7 °F 56 °F 29.72 in NNW 1.6 mph 4 mph 45.7% 0.00 in 796 W/m2
12:39 79.6 °F 55.5 °F 29.72 in North 1.8 mph 4 mph 43.7% 0.00 in 802 W/m2
12:44 80 °F 54.5 °F 29.72 in WNW 1.8 mph 4 mph 41.5% 0.00 in 803 W/m2
12:49 80.9 °F 54.5 °F 29.71 in WNW 1.5 mph 4 mph 40.1% 0.00 in 807 W/m2
12:54 81.4 °F 52.6 °F 29.71 in WSW 2 mph 5 mph 36.9% 0.00 in 810 W/m2
12:59 82.2 °F 53.2 °F 29.71 in NNW 1.3 mph 5 mph 36.8% 0.00 in 810 W/m2
13:04 83.5 °F 52.9 °F 29.71 in WSW 1.4 mph 4 mph 34.9% 0.00 in 812 W/m2
13:09 82.8 °F 52 °F 29.71 in SW 1.9 mph 5 mph 34.5% 0.00 in 816 W/m2
13:14 83.1 °F 53 °F 29.71 in WSW 2.4 mph 6 mph 35.5% 0.00 in 817 W/m2
13:19 83 °F 52.2 °F 29.71 in SW 2.3 mph 6 mph 34.5% 0.00 in 814 W/m2
13:24 83.5 °F 52.1 °F 29.70 in SW 1.1 mph 3 mph 34% 0.00 in 800 W/m2
13:29 84.2 °F 52.1 °F 29.70 in SW 2.3 mph 6 mph 33.1% 0.00 in 779 W/m2
13:34 84.7 °F 48 °F 29.70 in SW 2.5 mph 5 mph 28% 0.00 in 761 W/m2
13:39 85.9 °F 46.7 °F 29.69 in WSW 3.7 mph 9 mph 25.7% 0.00 in 770 W/m2
13:44 86.7 °F 43.1 °F 29.69 in West 2.6 mph 7 mph 21.8% 0.00 in 789 W/m2
13:49 87.9 °F 42.3 °F 29.69 in West 2.9 mph 7 mph 20.4% 0.00 in 816 W/m2
13:54 88.2 °F 39.7 °F 29.69 in West 3.8 mph 10 mph 18.2% 0.00 in 821 W/m2
13:59 88.6 °F 39.2 °F 29.69 in WNW 3.4 mph 12 mph 17.6% 0.00 in 824 W/m2
14:04 88.6 °F 36.3 °F 29.69 in WNW 4.7 mph 13 mph 15.7% 0.00 in 817 W/m2
14:09 88.6 °F 36.6 °F 29.69 in WNW 4.6 mph 10 mph 16% 0.00 in 814 W/m2
14:14 88.4 °F 36.7 °F 29.69 in WNW 4.4 mph 12 mph 16.1% 0.00 in 812 W/m2
14:19 88.1 °F 34.7 °F 29.69 in WNW 5.5 mph 17 mph 15% 0.00 in 809 W/m2
14:24 88.1 °F 34.4 °F 29.69 in WNW 3.9 mph 9 mph 14.8% 0.00 in 802 W/m2
14:29 88.6 °F 37 °F 29.68 in NW 4.3 mph 8 mph 16.2% 0.00 in 796 W/m2
14:34 88.8 °F 35.9 °F 29.68 in WNW 5.1 mph 15 mph 15.4% 0.00 in 796 W/m2
14:39 88.7 °F 37.4 °F 29.68 in WNW 4 mph 10 mph 16.4% 0.00 in 791 W/m2
14:44 88.7 °F 34.7 °F 29.68 in WNW 5.7 mph 13 mph 14.7% 0.00 in 782 W/m2
14:49 88.5 °F 34.4 °F 29.68 in NW 5.2 mph 12 mph 14.6% 0.00 in 777 W/m2
14:54 88.2 °F 34.8 °F 29.68 in NW 6.6 mph 16 mph 15% 0.00 in 770 W/m2
14:59 88.1 °F 36.1 °F 29.68 in NW 5.2 mph 16 mph 15.9% 0.00 in 763 W/m2
15:04 88.3 °F 36.6 °F 29.68 in NW 6.1 mph 14 mph 16.1% 0.00 in 754 W/m2
15:09 88.1 °F 35.3 °F 29.67 in WNW 5.9 mph 12 mph 15.4% 0.00 in 747 W/m2
15:14 87.9 °F 36.7 °F 29.67 in NW 4.5 mph 12 mph 16.4% 0.00 in 742 W/m2
15:19 88 °F 36.8 °F 29.67 in WNW 5.2 mph 13 mph 16.4% 0.00 in 731 W/m2
15:24 88.1 °F 37.4 °F 29.67 in NW 4.1 mph 9 mph 16.7% 0.00 in 726 W/m2
15:29 88.3 °F 38.7 °F 29.67 in NW 3.9 mph 9 mph 17.4% 0.00 in 717 W/m2
15:34 88.5 °F 38.2 °F 29.66 in NW 5.9 mph 16 mph 17% 0.00 in 705 W/m2
15:39 88 °F 36.2 °F 29.66 in WNW 5 mph 11 mph 16% 0.00 in 698 W/m2
15:44 87.7 °F 37.1 °F 29.66 in WNW 4 mph 11 mph 16.7% 0.00 in 687 W/m2
15:49 87.7 °F 36.6 °F 29.66 in NW 6.2 mph 15 mph 16.4% 0.00 in 682 W/m2
15:54 87.7 °F 36.6 °F 29.66 in WNW 5.1 mph 10 mph 16.4% 0.00 in 671 W/m2
15:59 87.6 °F 35.9 °F 29.66 in NW 4.5 mph 10 mph 16% 0.00 in 661 W/m2
16:04 87.7 °F 35.5 °F 29.66 in WNW 4.6 mph 12 mph 15.7% 0.00 in 650 W/m2
16:09 87.8 °F 35.6 °F 29.66 in WNW 4.2 mph 11 mph 15.7% 0.00 in 633 W/m2
16:14 88 °F 36.5 °F 29.66 in WNW 5 mph 11 mph 16.1% 0.00 in 624 W/m2
16:19 88 °F 36.6 °F 29.66 in NW 4.1 mph 9 mph 16.2% 0.00 in 610 W/m2
16:24 88 °F 35.7 °F 29.66 in NW 4.3 mph 8 mph 15.7% 0.00 in 599 W/m2
16:29 87.9 °F 34.8 °F 29.66 in West 5.4 mph 13 mph 15.2% 0.00 in 589 W/m2
16:34 87.5 °F 36 °F 29.66 in WNW 4.3 mph 13 mph 16.1% 0.00 in 573 W/m2
16:39 87.5 °F 35.6 °F 29.66 in WNW 5.8 mph 12 mph 15.8% 0.00 in 563 W/m2
16:44 87.3 °F 35.9 °F 29.66 in NNW 4.2 mph 12 mph 16.2% 0.00 in 548 W/m2
16:49 87.3 °F 36.2 °F 29.66 in WNW 2.8 mph 8 mph 16.3% 0.00 in 534 W/m2
16:54 87.8 °F 36.4 °F 29.66 in NNW 4.6 mph 11 mph 16.2% 0.00 in 520 W/m2
16:59 87.9 °F 35.8 °F 29.66 in West 2.8 mph 8 mph 15.8% 0.00 in 508 W/m2
17:04 88.1 °F 35.6 °F 29.66 in West 4.4 mph 10 mph 15.5% 0.00 in 492 W/m2
17:09 88 °F 36.1 °F 29.66 in West 2.9 mph 9 mph 15.9% 0.00 in 478 W/m2
17:14 88.2 °F 36 °F 29.66 in West 3.1 mph 10 mph 15.8% 0.00 in 461 W/m2
17:19 88.3 °F 34.9 °F 29.66 in WNW 4.1 mph 12 mph 15.1% 0.00 in 448 W/m2
17:24 88.1 °F 34.3 °F 29.66 in West 4.8 mph 13 mph 14.8% 0.00 in 432 W/m2
17:29 87.7 °F 34.7 °F 29.66 in WNW 3.4 mph 13 mph 15.2% 0.00 in 415 W/m2
17:34 87.7 °F 35.2 °F 29.66 in NW 2.4 mph 5 mph 15.5% 0.00 in 397 W/m2
17:39 87.9 °F 36.1 °F 29.66 in NNW 3.5 mph 9 mph 16% 0.00 in 385 W/m2
17:44 87.8 °F 35.4 °F 29.66 in WNW 2.1 mph 7 mph 15.6% 0.00 in 367 W/m2
17:49 87.6 °F 35.7 °F 29.66 in WNW 2.9 mph 6 mph 15.9% 0.00 in 352 W/m2
17:54 87.5 °F 35.6 °F 29.66 in NW 3 mph 6 mph 15.8% 0.00 in 336 W/m2
66th and South
Compliments of Weather Underground - 10.4 mb